Harrogate, TN (37752)

6:53 PM EDT on March 26, 2015 (GMT -0400)
Colmar | | Change Station
CLOSE
Current Station
Personal Weather Station
Location: Middlesboro, KY
Elevation: 1135 ft
Nearby Weather Stations
Active Advisory: Freeze Watch

Elev 1135 ft 36.66 °N, 83.67 °W | Updated 3 minutes ago

Overcast
Overcast
54.5 °F
Feels Like 54.5 °F
N
4.0
Wind Variable Wind from West

Today
High -- | Low -- °F
--% Chance of Precip.
Yesterday
High -- | Low -- °F
Precip. -- in
7:29 AM 7:51 PM
Waxing Crescent, 46% visible
Pressure 29.83 in
Visibility 10.0 miles
Clouds Overcast 1600 ft
Dew Point 49 °F
Humidity 83%
Rainfall 0.00 in
Snow Depth Not available.
UV 0 out of 12
Pollen 9.40 out of 12
Air Quality Not available.
Flu Activity Not available.
METAR K1A6 262235Z AUTO 30003KT 10SM OVC016 12/10 A2983 RMK AO2 T01210097

More Conditions Fewer Conditions

Pressure 29.83 in
Visibility 10.0 miles
Clouds Overcast 1600 ft
Dew Point 49 °F
Humidity 83%
Rainfall 0.00 in
Snow Depth Not available.
UV 0 out of 12
Pollen 9.40 out of 12
Air Quality Not available.
Flu Activity Not available.
METAR K1A6 262235Z AUTO 30003KT 10SM OVC016 12/10 A2983 RMK AO2 T01210097

More Conditions Fewer Conditions

10-Day Weather Forecast

Almanac

Astronomy

Mar. 26, 2015 Rise Set
Actual Time
Civil Twilight
Nautical Twilight
Astronomical Twilight
Moon
Length of Visible Light
Length of Day
Tomorrow will be .
, % of the Moon is Illuminated

Today's Extremes

State Highs State Lows

Community

WunderPhotos

Upload Photos

1,808,629 photos uploaded!

WunderBlogs® & News

Nearby

Air Quality

  Air Quality AQ Index Pollutant
Not available.

Snow Depth

Station Depth Elevation

Earthquake Activity

City Distance Mag. Time & Date
Minimum magnitude displayed is 2.5.

Coastal Water Temperatures

Place Temperature

Stations

Nearby Weather Stations

Station Location Temp. Windchill Dew Point Humidity Wind Precip. Elev Updated Type
                   
Freeze Watch
Statement as of 3:47 PM EDT on March 26, 2015

... Freeze watch remains in effect from late Friday night through
Saturday morning...

* event... a hard freeze expected with lows in the 20s.

* Timing... temperatures falling below 32 degrees after midnight
and not warming above freezing until mid morning Saturday.

* Impacts... the prolonged period of freezing temperatures could
kill Strawberry plants... and also damage the blooms of any
fruit trees in the watch area.

Precautionary/preparedness actions...

A freeze watch means sub-freezing temperatures are possible.
These conditions could kill crops and other sensitive vegetation
that are left unprotected.